sensor_id;sensor_type;location;lat;lon;timestamp;temperature;humidity
75430;DHT22;64127;51.488;5.462;2023-08-12T00:02:39;23.80;99.90
75430;DHT22;64127;51.488;5.462;2023-08-12T00:05:13;23.80;99.90
75430;DHT22;64127;51.488;5.462;2023-08-12T00:07:45;23.80;99.90
75430;DHT22;64127;51.488;5.462;2023-08-12T00:10:20;23.80;99.90
75430;DHT22;64127;51.488;5.462;2023-08-12T00:12:52;23.70;99.90
75430;DHT22;64127;51.488;5.462;2023-08-12T00:15:24;23.70;99.90
75430;DHT22;64127;51.488;5.462;2023-08-12T00:17:58;23.70;99.90
75430;DHT22;64127;51.488;5.462;2023-08-12T00:20:30;23.70;99.90
75430;DHT22;64127;51.488;5.462;2023-08-12T00:23:02;23.70;99.90
75430;DHT22;64127;51.488;5.462;2023-08-12T00:25:35;23.70;99.90
75430;DHT22;64127;51.488;5.462;2023-08-12T00:28:07;23.70;99.90
75430;DHT22;64127;51.488;5.462;2023-08-12T00:30:39;23.70;99.90
75430;DHT22;64127;51.488;5.462;2023-08-12T00:33:11;23.70;99.90
75430;DHT22;64127;51.488;5.462;2023-08-12T00:35:43;23.70;99.90
75430;DHT22;64127;51.488;5.462;2023-08-12T00:38:15;23.70;99.90
75430;DHT22;64127;51.488;5.462;2023-08-12T00:40:48;23.70;99.90
75430;DHT22;64127;51.488;5.462;2023-08-12T00:43:20;23.70;99.90
75430;DHT22;64127;51.488;5.462;2023-08-12T00:45:52;23.70;99.90
75430;DHT22;64127;51.488;5.462;2023-08-12T00:48:25;23.60;99.90
75430;DHT22;64127;51.488;5.462;2023-08-12T00:50:57;23.60;99.90
75430;DHT22;64127;51.488;5.462;2023-08-12T00:53:29;23.60;99.90
75430;DHT22;64127;51.488;5.462;2023-08-12T00:56:02;23.60;99.90
75430;DHT22;64127;51.488;5.462;2023-08-12T00:58:35;23.60;99.90
75430;DHT22;64127;51.488;5.462;2023-08-12T01:01:07;23.60;99.90
75430;DHT22;64127;51.488;5.462;2023-08-12T01:03:39;23.60;99.90
75430;DHT22;64127;51.488;5.462;2023-08-12T01:06:12;23.50;99.90
75430;DHT22;64127;51.488;5.462;2023-08-12T01:08:45;23.50;99.90
75430;DHT22;64127;51.488;5.462;2023-08-12T01:11:24;23.50;99.90
75430;DHT22;64127;51.488;5.462;2023-08-12T01:16:47;23.50;99.90
75430;DHT22;64127;51.488;5.462;2023-08-12T01:19:39;23.50;99.90
75430;DHT22;64127;51.488;5.462;2023-08-12T01:22:12;23.50;99.90
75430;DHT22;64127;51.488;5.462;2023-08-12T01:24:44;23.40;99.90
75430;DHT22;64127;51.488;5.462;2023-08-12T01:27:16;23.50;99.90
75430;DHT22;64127;51.488;5.462;2023-08-12T01:29:50;23.40;99.90
75430;DHT22;64127;51.488;5.462;2023-08-12T01:35:33;23.40;99.90
75430;DHT22;64127;51.488;5.462;2023-08-12T01:38:11;23.40;99.90
75430;DHT22;64127;51.488;5.462;2023-08-12T01:40:44;23.30;99.90
75430;DHT22;64127;51.488;5.462;2023-08-12T01:43:17;23.30;99.90
75430;DHT22;64127;51.488;5.462;2023-08-12T01:45:51;23.20;99.90
75430;DHT22;64127;51.488;5.462;2023-08-12T01:48:23;23.20;99.90
75430;DHT22;64127;51.488;5.462;2023-08-12T01:50:55;23.10;99.90
75430;DHT22;64127;51.488;5.462;2023-08-12T01:53:27;23.10;99.90
75430;DHT22;64127;51.488;5.462;2023-08-12T01:56:01;23.10;99.90
75430;DHT22;64127;51.488;5.462;2023-08-12T01:58:34;23.10;99.90
75430;DHT22;64127;51.488;5.462;2023-08-12T02:01:06;23.10;99.90
75430;DHT22;64127;51.488;5.462;2023-08-12T02:03:38;23.00;99.90
75430;DHT22;64127;51.488;5.462;2023-08-12T02:06:10;23.00;99.90
75430;DHT22;64127;51.488;5.462;2023-08-12T02:08:42;23.00;99.90
75430;DHT22;64127;51.488;5.462;2023-08-12T02:11:15;23.00;99.90
75430;DHT22;64127;51.488;5.462;2023-08-12T02:13:47;23.00;99.90
75430;DHT22;64127;51.488;5.462;2023-08-12T02:16:19;23.00;99.90
75430;DHT22;64127;51.488;5.462;2023-08-12T02:18:51;22.90;99.90
75430;DHT22;64127;51.488;5.462;2023-08-12T02:21:23;22.90;99.90
75430;DHT22;64127;51.488;5.462;2023-08-12T02:23:55;22.90;99.90
75430;DHT22;64127;51.488;5.462;2023-08-12T02:26:27;22.90;99.90
75430;DHT22;64127;51.488;5.462;2023-08-12T02:28:59;22.80;99.90
75430;DHT22;64127;51.488;5.462;2023-08-12T02:31:31;22.80;99.90
75430;DHT22;64127;51.488;5.462;2023-08-12T02:34:04;22.80;99.90
75430;DHT22;64127;51.488;5.462;2023-08-12T02:36:36;22.90;99.90
75430;DHT22;64127;51.488;5.462;2023-08-12T02:39:08;22.80;99.90
75430;DHT22;64127;51.488;5.462;2023-08-12T02:41:40;22.80;99.90
75430;DHT22;64127;51.488;5.462;2023-08-12T02:44:12;22.80;99.90
75430;DHT22;64127;51.488;5.462;2023-08-12T02:46:44;22.80;99.90
75430;DHT22;64127;51.488;5.462;2023-08-12T02:49:16;22.70;99.90
75430;DHT22;64127;51.488;5.462;2023-08-12T02:51:48;22.70;99.90
75430;DHT22;64127;51.488;5.462;2023-08-12T02:54:20;22.70;99.90
75430;DHT22;64127;51.488;5.462;2023-08-12T02:56:53;22.70;99.90
75430;DHT22;64127;51.488;5.462;2023-08-12T02:59:25;22.70;99.90
75430;DHT22;64127;51.488;5.462;2023-08-12T03:01:57;22.70;99.90
75430;DHT22;64127;51.488;5.462;2023-08-12T03:04:29;22.70;99.90
75430;DHT22;64127;51.488;5.462;2023-08-12T03:07:01;22.70;99.90
75430;DHT22;64127;51.488;5.462;2023-08-12T03:09:35;22.70;99.90
75430;DHT22;64127;51.488;5.462;2023-08-12T03:12:07;22.60;99.90
75430;DHT22;64127;51.488;5.462;2023-08-12T03:14:42;22.60;99.90
75430;DHT22;64127;51.488;5.462;2023-08-12T03:17:15;22.60;99.90
75430;DHT22;64127;51.488;5.462;2023-08-12T03:19:47;22.60;99.90
75430;DHT22;64127;51.488;5.462;2023-08-12T03:22:19;22.60;99.90
75430;DHT22;64127;51.488;5.462;2023-08-12T03:24:52;22.60;99.90
75430;DHT22;64127;51.488;5.462;2023-08-12T03:27:24;22.60;99.90
75430;DHT22;64127;51.488;5.462;2023-08-12T03:29:57;22.60;99.90
75430;DHT22;64127;51.488;5.462;2023-08-12T03:32:29;22.60;99.90
75430;DHT22;64127;51.488;5.462;2023-08-12T03:35:01;22.60;99.90
75430;DHT22;64127;51.488;5.462;2023-08-12T03:37:34;22.50;99.90
75430;DHT22;64127;51.488;5.462;2023-08-12T03:40:06;22.40;99.90
75430;DHT22;64127;51.488;5.462;2023-08-12T03:42:39;22.40;99.90
75430;DHT22;64127;51.488;5.462;2023-08-12T03:45:11;22.30;99.90
75430;DHT22;64127;51.488;5.462;2023-08-12T03:47:46;22.30;99.90
75430;DHT22;64127;51.488;5.462;2023-08-12T03:50:18;22.20;99.90
75430;DHT22;64127;51.488;5.462;2023-08-12T03:52:51;22.20;99.90
75430;DHT22;64127;51.488;5.462;2023-08-12T03:55:23;22.20;99.90
75430;DHT22;64127;51.488;5.462;2023-08-12T03:57:55;22.20;99.90
75430;DHT22;64127;51.488;5.462;2023-08-12T04:00:27;22.20;99.90
75430;DHT22;64127;51.488;5.462;2023-08-12T04:03:00;22.30;99.90
75430;DHT22;64127;51.488;5.462;2023-08-12T04:05:32;22.30;99.90
75430;DHT22;64127;51.488;5.462;2023-08-12T04:08:05;22.30;99.90
75430;DHT22;64127;51.488;5.462;2023-08-12T04:10:37;22.30;99.90
75430;DHT22;64127;51.488;5.462;2023-08-12T04:13:09;22.30;99.90
75430;DHT22;64127;51.488;5.462;2023-08-12T04:15:42;22.30;99.90
75430;DHT22;64127;51.488;5.462;2023-08-12T04:18:15;22.30;99.90
75430;DHT22;64127;51.488;5.462;2023-08-12T04:20:51;22.30;99.90
75430;DHT22;64127;51.488;5.462;2023-08-12T04:23:24;22.30;99.90
75430;DHT22;64127;51.488;5.462;2023-08-12T04:25:59;22.30;99.90
75430;DHT22;64127;51.488;5.462;2023-08-12T04:28:31;22.40;99.90
75430;DHT22;64127;51.488;5.462;2023-08-12T04:31:06;22.30;99.90
75430;DHT22;64127;51.488;5.462;2023-08-12T04:33:41;22.40;99.90
75430;DHT22;64127;51.488;5.462;2023-08-12T04:36:13;22.40;99.90
75430;DHT22;64127;51.488;5.462;2023-08-12T04:38:45;22.40;99.90
75430;DHT22;64127;51.488;5.462;2023-08-12T04:41:18;22.30;99.90
75430;DHT22;64127;51.488;5.462;2023-08-12T04:43:50;22.30;99.90
75430;DHT22;64127;51.488;5.462;2023-08-12T04:46:25;22.30;99.90
75430;DHT22;64127;51.488;5.462;2023-08-12T04:48:57;22.30;99.90
75430;DHT22;64127;51.488;5.462;2023-08-12T04:51:29;22.30;99.90
75430;DHT22;64127;51.488;5.462;2023-08-12T04:54:02;22.20;99.90
75430;DHT22;64127;51.488;5.462;2023-08-12T04:56:34;22.20;99.90
75430;DHT22;64127;51.488;5.462;2023-08-12T04:59:06;22.20;99.90
75430;DHT22;64127;51.488;5.462;2023-08-12T05:01:40;22.10;99.90
75430;DHT22;64127;51.488;5.462;2023-08-12T05:04:32;22.10;99.90
75430;DHT22;64127;51.488;5.462;2023-08-12T05:07:04;22.00;99.90
75430;DHT22;64127;51.488;5.462;2023-08-12T05:09:36;22.00;99.90
75430;DHT22;64127;51.488;5.462;2023-08-12T05:12:08;22.00;99.90
75430;DHT22;64127;51.488;5.462;2023-08-12T05:14:41;21.90;99.90
75430;DHT22;64127;51.488;5.462;2023-08-12T05:17:13;21.90;99.90
75430;DHT22;64127;51.488;5.462;2023-08-12T05:19:46;21.90;99.90
75430;DHT22;64127;51.488;5.462;2023-08-12T05:22:18;21.90;99.90
75430;DHT22;64127;51.488;5.462;2023-08-12T05:28:11;21.80;99.90
75430;DHT22;64127;51.488;5.462;2023-08-12T05:30:44;21.80;99.90
75430;DHT22;64127;51.488;5.462;2023-08-12T05:33:16;21.80;99.90
75430;DHT22;64127;51.488;5.462;2023-08-12T05:35:48;21.70;99.90
75430;DHT22;64127;51.488;5.462;2023-08-12T05:38:23;21.80;99.90
75430;DHT22;64127;51.488;5.462;2023-08-12T05:40:55;21.70;99.90
75430;DHT22;64127;51.488;5.462;2023-08-12T05:43:27;21.70;99.90
75430;DHT22;64127;51.488;5.462;2023-08-12T05:46:02;21.70;99.90
75430;DHT22;64127;51.488;5.462;2023-08-12T05:48:34;21.70;99.90
75430;DHT22;64127;51.488;5.462;2023-08-12T05:51:06;21.70;99.90
75430;DHT22;64127;51.488;5.462;2023-08-12T05:53:39;21.70;99.90
75430;DHT22;64127;51.488;5.462;2023-08-12T05:56:11;21.60;99.90
75430;DHT22;64127;51.488;5.462;2023-08-12T05:58:43;21.70;99.90
75430;DHT22;64127;51.488;5.462;2023-08-12T06:01:15;21.70;99.90
75430;DHT22;64127;51.488;5.462;2023-08-12T06:03:52;21.70;99.90
75430;DHT22;64127;51.488;5.462;2023-08-12T06:06:27;21.70;99.90
75430;DHT22;64127;51.488;5.462;2023-08-12T06:09:02;21.70;99.90
75430;DHT22;64127;51.488;5.462;2023-08-12T06:11:37;21.60;99.90
75430;DHT22;64127;51.488;5.462;2023-08-12T06:14:12;21.70;99.90
75430;DHT22;64127;51.488;5.462;2023-08-12T06:16:45;21.70;99.90
75430;DHT22;64127;51.488;5.462;2023-08-12T06:19:19;21.70;99.90
75430;DHT22;64127;51.488;5.462;2023-08-12T06:21:52;21.70;99.90
75430;DHT22;64127;51.488;5.462;2023-08-12T06:24:24;21.70;99.90
75430;DHT22;64127;51.488;5.462;2023-08-12T06:26:59;21.80;99.90
75430;DHT22;64127;51.488;5.462;2023-08-12T06:29:45;21.70;99.90
75430;DHT22;64127;51.488;5.462;2023-08-12T06:32:18;21.80;99.90
75430;DHT22;64127;51.488;5.462;2023-08-12T06:34:51;21.80;99.90
75430;DHT22;64127;51.488;5.462;2023-08-12T06:37:24;21.80;99.90
75430;DHT22;64127;51.488;5.462;2023-08-12T06:39:58;21.80;99.90
75430;DHT22;64127;51.488;5.462;2023-08-12T06:42:38;21.80;99.90
75430;DHT22;64127;51.488;5.462;2023-08-12T06:45:13;21.80;99.90
75430;DHT22;64127;51.488;5.462;2023-08-12T06:47:48;21.80;99.90
75430;DHT22;64127;51.488;5.462;2023-08-12T06:50:20;21.80;99.90
75430;DHT22;64127;51.488;5.462;2023-08-12T06:52:53;21.70;99.90
75430;DHT22;64127;51.488;5.462;2023-08-12T06:55:28;21.70;99.90
75430;DHT22;64127;51.488;5.462;2023-08-12T06:58:02;21.70;99.90
75430;DHT22;64127;51.488;5.462;2023-08-12T07:00:35;21.70;99.90
75430;DHT22;64127;51.488;5.462;2023-08-12T07:03:07;21.80;99.90
75430;DHT22;64127;51.488;5.462;2023-08-12T07:05:40;21.80;99.90
75430;DHT22;64127;51.488;5.462;2023-08-12T07:08:19;21.70;99.90
75430;DHT22;64127;51.488;5.462;2023-08-12T07:10:53;21.80;99.90
75430;DHT22;64127;51.488;5.462;2023-08-12T07:13:31;21.80;99.90
75430;DHT22;64127;51.488;5.462;2023-08-12T07:16:25;21.80;99.90
75430;DHT22;64127;51.488;5.462;2023-08-12T07:19:03;21.80;99.90
75430;DHT22;64127;51.488;5.462;2023-08-12T07:21:55;21.70;99.90
75430;DHT22;64127;51.488;5.462;2023-08-12T07:24:27;21.70;99.90
75430;DHT22;64127;51.488;5.462;2023-08-12T07:27:00;21.70;99.90
75430;DHT22;64127;51.488;5.462;2023-08-12T07:29:32;21.70;99.90
75430;DHT22;64127;51.488;5.462;2023-08-12T07:32:04;21.70;99.90
75430;DHT22;64127;51.488;5.462;2023-08-12T07:34:42;21.70;99.90
75430;DHT22;64127;51.488;5.462;2023-08-12T07:37:15;21.60;99.90
75430;DHT22;64127;51.488;5.462;2023-08-12T07:39:47;21.60;99.90
75430;DHT22;64127;51.488;5.462;2023-08-12T07:42:19;21.60;99.90
75430;DHT22;64127;51.488;5.462;2023-08-12T07:44:52;21.60;99.90
75430;DHT22;64127;51.488;5.462;2023-08-12T07:47:24;21.60;99.90
75430;DHT22;64127;51.488;5.462;2023-08-12T07:49:56;21.50;99.90
75430;DHT22;64127;51.488;5.462;2023-08-12T07:52:31;21.60;99.90
75430;DHT22;64127;51.488;5.462;2023-08-12T07:55:03;21.50;99.90
75430;DHT22;64127;51.488;5.462;2023-08-12T07:57:36;21.60;99.90
75430;DHT22;64127;51.488;5.462;2023-08-12T08:00:08;21.60;99.90
75430;DHT22;64127;51.488;5.462;2023-08-12T08:02:42;21.70;99.90
75430;DHT22;64127;51.488;5.462;2023-08-12T08:05:20;21.70;99.90
75430;DHT22;64127;51.488;5.462;2023-08-12T08:07:52;21.70;99.90
75430;DHT22;64127;51.488;5.462;2023-08-12T08:10:24;21.70;99.90
75430;DHT22;64127;51.488;5.462;2023-08-12T08:12:56;21.70;99.90
75430;DHT22;64127;51.488;5.462;2023-08-12T08:15:31;21.80;99.90
75430;DHT22;64127;51.488;5.462;2023-08-12T08:18:04;21.70;99.90
75430;DHT22;64127;51.488;5.462;2023-08-12T08:20:42;21.70;99.90
75430;DHT22;64127;51.488;5.462;2023-08-12T08:23:16;21.70;99.90
75430;DHT22;64127;51.488;5.462;2023-08-12T08:25:49;21.70;99.90
75430;DHT22;64127;51.488;5.462;2023-08-12T08:28:21;21.70;99.90
75430;DHT22;64127;51.488;5.462;2023-08-12T08:30:53;21.80;99.90
75430;DHT22;64127;51.488;5.462;2023-08-12T08:33:26;21.80;99.90
75430;DHT22;64127;51.488;5.462;2023-08-12T08:35:58;21.90;99.90
75430;DHT22;64127;51.488;5.462;2023-08-12T08:38:30;22.00;99.90
75430;DHT22;64127;51.488;5.462;2023-08-12T08:41:06;22.00;99.90
75430;DHT22;64127;51.488;5.462;2023-08-12T08:43:42;22.00;99.90
75430;DHT22;64127;51.488;5.462;2023-08-12T08:46:17;22.10;99.90
75430;DHT22;64127;51.488;5.462;2023-08-12T08:48:51;22.30;99.90
75430;DHT22;64127;51.488;5.462;2023-08-12T08:51:24;22.40;99.90
75430;DHT22;64127;51.488;5.462;2023-08-12T08:54:01;22.50;99.90
75430;DHT22;64127;51.488;5.462;2023-08-12T08:56:37;22.60;99.90
75430;DHT22;64127;51.488;5.462;2023-08-12T08:59:23;22.50;99.90
75430;DHT22;64127;51.488;5.462;2023-08-12T09:01:56;22.50;99.90
75430;DHT22;64127;51.488;5.462;2023-08-12T09:04:31;22.50;99.90
75430;DHT22;64127;51.488;5.462;2023-08-12T09:07:04;22.50;99.90
75430;DHT22;64127;51.488;5.462;2023-08-12T09:09:48;22.50;99.90
75430;DHT22;64127;51.488;5.462;2023-08-12T09:12:27;22.50;99.90
75430;DHT22;64127;51.488;5.462;2023-08-12T09:15:00;22.50;99.90
75430;DHT22;64127;51.488;5.462;2023-08-12T09:17:32;22.50;99.90
75430;DHT22;64127;51.488;5.462;2023-08-12T09:20:06;22.50;99.90
75430;DHT22;64127;51.488;5.462;2023-08-12T09:22:44;22.50;99.90
75430;DHT22;64127;51.488;5.462;2023-08-12T09:25:16;22.50;99.90
75430;DHT22;64127;51.488;5.462;2023-08-12T09:32:26;22.40;99.90
75430;DHT22;64127;51.488;5.462;2023-08-12T09:35:10;22.30;99.90
75430;DHT22;64127;51.488;5.462;2023-08-12T09:37:49;22.30;99.90
75430;DHT22;64127;51.488;5.462;2023-08-12T09:40:22;22.30;99.90
75430;DHT22;64127;51.488;5.462;2023-08-12T09:42:56;22.40;99.90
75430;DHT22;64127;51.488;5.462;2023-08-12T09:45:31;22.40;99.90
75430;DHT22;64127;51.488;5.462;2023-08-12T09:48:06;22.50;99.90
75430;DHT22;64127;51.488;5.462;2023-08-12T09:50:42;22.50;99.90
75430;DHT22;64127;51.488;5.462;2023-08-12T09:53:23;22.50;99.90
75430;DHT22;64127;51.488;5.462;2023-08-12T09:56:03;22.50;99.90
75430;DHT22;64127;51.488;5.462;2023-08-12T09:58:41;22.40;99.90
75430;DHT22;64127;51.488;5.462;2023-08-12T10:01:55;22.40;99.90
75430;DHT22;64127;51.488;5.462;2023-08-12T10:04:35;22.30;99.90
75430;DHT22;64127;51.488;5.462;2023-08-12T10:07:15;22.20;99.90
75430;DHT22;64127;51.488;5.462;2023-08-12T10:09:49;22.10;99.90
75430;DHT22;64127;51.488;5.462;2023-08-12T10:12:21;22.10;99.90
75430;DHT22;64127;51.488;5.462;2023-08-12T10:15:01;22.20;99.90
75430;DHT22;64127;51.488;5.462;2023-08-12T10:17:34;22.10;99.90
75430;DHT22;64127;51.488;5.462;2023-08-12T10:20:20;22.10;99.90
75430;DHT22;64127;51.488;5.462;2023-08-12T10:22:55;22.20;99.90
75430;DHT22;64127;51.488;5.462;2023-08-12T10:25:31;22.20;99.90
75430;DHT22;64127;51.488;5.462;2023-08-12T10:28:06;22.20;99.90
75430;DHT22;64127;51.488;5.462;2023-08-12T10:30:40;22.30;99.90
75430;DHT22;64127;51.488;5.462;2023-08-12T10:33:16;22.30;99.90
75430;DHT22;64127;51.488;5.462;2023-08-12T10:35:49;22.40;99.90
75430;DHT22;64127;51.488;5.462;2023-08-12T10:38:21;22.50;99.90
75430;DHT22;64127;51.488;5.462;2023-08-12T10:41:16;22.70;99.90
75430;DHT22;64127;51.488;5.462;2023-08-12T10:43:52;22.80;99.90
75430;DHT22;64127;51.488;5.462;2023-08-12T10:46:33;22.80;99.90
75430;DHT22;64127;51.488;5.462;2023-08-12T10:49:10;22.90;99.90
75430;DHT22;64127;51.488;5.462;2023-08-12T10:51:50;22.90;99.90
75430;DHT22;64127;51.488;5.462;2023-08-12T10:54:28;22.90;99.90
75430;DHT22;64127;51.488;5.462;2023-08-12T10:59:53;23.00;99.90
75430;DHT22;64127;51.488;5.462;2023-08-12T11:02:33;23.00;99.90
75430;DHT22;64127;51.488;5.462;2023-08-12T11:05:10;23.00;99.90
75430;DHT22;64127;51.488;5.462;2023-08-12T11:07:59;23.00;99.90
75430;DHT22;64127;51.488;5.462;2023-08-12T11:10:34;22.90;99.90
75430;DHT22;64127;51.488;5.462;2023-08-12T11:13:08;22.90;99.90
75430;DHT22;64127;51.488;5.462;2023-08-12T11:15:42;22.80;99.90
75430;DHT22;64127;51.488;5.462;2023-08-12T11:18:19;22.90;99.90
75430;DHT22;64127;51.488;5.462;2023-08-12T11:20:52;23.00;99.90
75430;DHT22;64127;51.488;5.462;2023-08-12T11:23:27;23.10;99.90
75430;DHT22;64127;51.488;5.462;2023-08-12T11:26:00;23.20;99.90
75430;DHT22;64127;51.488;5.462;2023-08-12T11:28:33;23.30;99.90
75430;DHT22;64127;51.488;5.462;2023-08-12T11:31:05;23.40;99.90
75430;DHT22;64127;51.488;5.462;2023-08-12T11:33:37;23.40;99.90
75430;DHT22;64127;51.488;5.462;2023-08-12T11:36:10;23.40;99.90
75430;DHT22;64127;51.488;5.462;2023-08-12T11:38:42;23.40;99.90
75430;DHT22;64127;51.488;5.462;2023-08-12T11:41:22;23.50;99.90
75430;DHT22;64127;51.488;5.462;2023-08-12T11:43:55;23.60;99.90
75430;DHT22;64127;51.488;5.462;2023-08-12T11:46:27;23.70;99.90
75430;DHT22;64127;51.488;5.462;2023-08-12T11:48:59;23.70;99.90
75430;DHT22;64127;51.488;5.462;2023-08-12T11:51:31;23.70;99.90
75430;DHT22;64127;51.488;5.462;2023-08-12T11:54:07;23.70;99.90
75430;DHT22;64127;51.488;5.462;2023-08-12T11:56:40;23.70;99.90
75430;DHT22;64127;51.488;5.462;2023-08-12T11:59:13;23.80;99.90
75430;DHT22;64127;51.488;5.462;2023-08-12T12:01:49;23.90;99.90
75430;DHT22;64127;51.488;5.462;2023-08-12T12:04:22;23.90;99.90
75430;DHT22;64127;51.488;5.462;2023-08-12T12:06:57;24.00;99.90
75430;DHT22;64127;51.488;5.462;2023-08-12T12:09:37;24.10;99.90
75430;DHT22;64127;51.488;5.462;2023-08-12T12:12:16;24.20;99.90
75430;DHT22;64127;51.488;5.462;2023-08-12T12:14:59;24.20;99.90
75430;DHT22;64127;51.488;5.462;2023-08-12T12:17:38;24.20;99.90
75430;DHT22;64127;51.488;5.462;2023-08-12T12:20:15;24.10;99.90
75430;DHT22;64127;51.488;5.462;2023-08-12T12:22:50;24.00;99.90
75430;DHT22;64127;51.488;5.462;2023-08-12T12:25:25;24.00;99.90
75430;DHT22;64127;51.488;5.462;2023-08-12T12:27:57;24.00;99.90
75430;DHT22;64127;51.488;5.462;2023-08-12T12:30:32;24.20;99.90
75430;DHT22;64127;51.488;5.462;2023-08-12T12:33:07;24.30;99.90
75430;DHT22;64127;51.488;5.462;2023-08-12T12:35:45;24.50;99.90
75430;DHT22;64127;51.488;5.462;2023-08-12T12:38:29;24.60;99.90
75430;DHT22;64127;51.488;5.462;2023-08-12T12:41:04;24.80;99.90
75430;DHT22;64127;51.488;5.462;2023-08-12T12:43:37;24.90;99.90
75430;DHT22;64127;51.488;5.462;2023-08-12T12:46:09;25.00;99.90
75430;DHT22;64127;51.488;5.462;2023-08-12T12:48:51;25.10;99.90
75430;DHT22;64127;51.488;5.462;2023-08-12T12:51:25;25.20;99.90
75430;DHT22;64127;51.488;5.462;2023-08-12T12:56:42;25.30;99.90
75430;DHT22;64127;51.488;5.462;2023-08-12T12:59:16;25.20;99.90
75430;DHT22;64127;51.488;5.462;2023-08-12T13:01:49;25.30;99.90
75430;DHT22;64127;51.488;5.462;2023-08-12T13:04:21;25.30;99.90
75430;DHT22;64127;51.488;5.462;2023-08-12T13:06:57;25.40;99.90
75430;DHT22;64127;51.488;5.462;2023-08-12T13:09:29;25.50;99.90
75430;DHT22;64127;51.488;5.462;2023-08-12T13:12:03;25.50;99.90
75430;DHT22;64127;51.488;5.462;2023-08-12T13:14:35;25.40;99.90
75430;DHT22;64127;51.488;5.462;2023-08-12T13:17:07;25.50;99.90
75430;DHT22;64127;51.488;5.462;2023-08-12T13:19:39;25.60;99.90
75430;DHT22;64127;51.488;5.462;2023-08-12T13:22:11;25.70;99.90
75430;DHT22;64127;51.488;5.462;2023-08-12T13:24:44;25.90;99.90
75430;DHT22;64127;51.488;5.462;2023-08-12T13:27:16;26.10;99.90
75430;DHT22;64127;51.488;5.462;2023-08-12T13:29:49;26.10;99.90
75430;DHT22;64127;51.488;5.462;2023-08-12T13:32:20;26.10;99.90
75430;DHT22;64127;51.488;5.462;2023-08-12T13:34:53;26.00;99.90
75430;DHT22;64127;51.488;5.462;2023-08-12T13:37:25;26.00;99.90
75430;DHT22;64127;51.488;5.462;2023-08-12T13:40:00;26.00;99.90
75430;DHT22;64127;51.488;5.462;2023-08-12T13:42:32;26.00;99.90
75430;DHT22;64127;51.488;5.462;2023-08-12T13:45:06;26.10;99.90
75430;DHT22;64127;51.488;5.462;2023-08-12T13:47:38;26.10;99.90
75430;DHT22;64127;51.488;5.462;2023-08-12T13:50:10;26.10;99.90
75430;DHT22;64127;51.488;5.462;2023-08-12T13:52:45;26.20;99.90
75430;DHT22;64127;51.488;5.462;2023-08-12T13:55:18;26.20;99.90
75430;DHT22;64127;51.488;5.462;2023-08-12T13:57:50;26.20;99.90
75430;DHT22;64127;51.488;5.462;2023-08-12T14:00:24;26.20;99.90
75430;DHT22;64127;51.488;5.462;2023-08-12T14:02:56;26.10;99.40
75430;DHT22;64127;51.488;5.462;2023-08-12T14:05:28;26.10;99.00
75430;DHT22;64127;51.488;5.462;2023-08-12T14:08:01;26.20;98.30
75430;DHT22;64127;51.488;5.462;2023-08-12T14:10:33;26.20;98.00
75430;DHT22;64127;51.488;5.462;2023-08-12T14:13:07;26.30;97.90
75430;DHT22;64127;51.488;5.462;2023-08-12T14:16:43;26.50;96.90
75430;DHT22;64127;51.488;5.462;2023-08-12T14:19:15;26.60;96.30
75430;DHT22;64127;51.488;5.462;2023-08-12T14:21:49;26.60;95.90
75430;DHT22;64127;51.488;5.462;2023-08-12T14:24:21;26.60;95.80
75430;DHT22;64127;51.488;5.462;2023-08-12T14:26:53;26.60;95.60
75430;DHT22;64127;51.488;5.462;2023-08-12T14:29:25;26.40;95.60
75430;DHT22;64127;51.488;5.462;2023-08-12T14:31:57;26.30;96.20
75430;DHT22;64127;51.488;5.462;2023-08-12T14:34:29;26.20;95.80
75430;DHT22;64127;51.488;5.462;2023-08-12T14:37:02;26.20;95.60
75430;DHT22;64127;51.488;5.462;2023-08-12T14:39:35;26.20;95.60
75430;DHT22;64127;51.488;5.462;2023-08-12T14:42:07;26.20;95.40
75430;DHT22;64127;51.488;5.462;2023-08-12T14:44:40;26.10;95.20
75430;DHT22;64127;51.488;5.462;2023-08-12T14:47:12;26.10;95.10
75430;DHT22;64127;51.488;5.462;2023-08-12T14:49:45;26.10;95.00
75430;DHT22;64127;51.488;5.462;2023-08-12T14:52:21;26.20;95.00
75430;DHT22;64127;51.488;5.462;2023-08-12T14:54:54;26.30;94.80
75430;DHT22;64127;51.488;5.462;2023-08-12T14:57:26;26.30;95.10
75430;DHT22;64127;51.488;5.462;2023-08-12T14:59:58;26.40;94.60
75430;DHT22;64127;51.488;5.462;2023-08-12T15:02:30;26.40;94.20
75430;DHT22;64127;51.488;5.462;2023-08-12T15:05:04;26.40;94.20
75430;DHT22;64127;51.488;5.462;2023-08-12T15:07:37;26.40;94.40
75430;DHT22;64127;51.488;5.462;2023-08-12T15:10:10;26.40;94.20
75430;DHT22;64127;51.488;5.462;2023-08-12T15:12:42;26.40;94.50
75430;DHT22;64127;51.488;5.462;2023-08-12T15:15:14;26.40;94.50
75430;DHT22;64127;51.488;5.462;2023-08-12T15:17:46;26.30;94.10
75430;DHT22;64127;51.488;5.462;2023-08-12T15:20:18;26.30;93.80
75430;DHT22;64127;51.488;5.462;2023-08-12T15:22:50;26.20;93.10
75430;DHT22;64127;51.488;5.462;2023-08-12T15:25:22;26.30;93.10
75430;DHT22;64127;51.488;5.462;2023-08-12T15:27:54;26.30;92.80
75430;DHT22;64127;51.488;5.462;2023-08-12T15:30:28;26.30;92.60
75430;DHT22;64127;51.488;5.462;2023-08-12T15:33:01;26.20;92.40
75430;DHT22;64127;51.488;5.462;2023-08-12T15:35:33;26.20;92.30
75430;DHT22;64127;51.488;5.462;2023-08-12T15:38:05;26.20;92.20
75430;DHT22;64127;51.488;5.462;2023-08-12T15:40:37;26.10;92.00
75430;DHT22;64127;51.488;5.462;2023-08-12T15:43:10;25.90;91.90
75430;DHT22;64127;51.488;5.462;2023-08-12T15:45:42;25.90;92.30
75430;DHT22;64127;51.488;5.462;2023-08-12T15:48:14;25.90;92.50
75430;DHT22;64127;51.488;5.462;2023-08-12T15:50:46;25.80;92.70
75430;DHT22;64127;51.488;5.462;2023-08-12T15:53:19;25.80;92.60
75430;DHT22;64127;51.488;5.462;2023-08-12T15:55:51;25.80;92.60
75430;DHT22;64127;51.488;5.462;2023-08-12T15:58:23;25.80;92.70
75430;DHT22;64127;51.488;5.462;2023-08-12T16:00:56;25.80;92.60
75430;DHT22;64127;51.488;5.462;2023-08-12T16:03:28;25.80;92.10
75430;DHT22;64127;51.488;5.462;2023-08-12T16:06:00;25.80;92.00
75430;DHT22;64127;51.488;5.462;2023-08-12T16:08:33;25.70;91.80
75430;DHT22;64127;51.488;5.462;2023-08-12T16:11:05;25.60;91.80
75430;DHT22;64127;51.488;5.462;2023-08-12T16:13:37;25.40;92.10
75430;DHT22;64127;51.488;5.462;2023-08-12T16:16:09;25.40;92.30
75430;DHT22;64127;51.488;5.462;2023-08-12T16:18:42;25.40;92.80
75430;DHT22;64127;51.488;5.462;2023-08-12T16:21:14;25.50;92.80
75430;DHT22;64127;51.488;5.462;2023-08-12T16:23:46;25.60;92.80
75430;DHT22;64127;51.488;5.462;2023-08-12T16:26:18;25.70;92.40
75430;DHT22;64127;51.488;5.462;2023-08-12T16:28:52;25.80;92.10
75430;DHT22;64127;51.488;5.462;2023-08-12T16:31:25;25.70;91.90
75430;DHT22;64127;51.488;5.462;2023-08-12T16:33:58;25.60;92.00